Time,TemperatureF,DewpointF,PressureIn,WindDirection,WindDirectionDegrees,WindSpeedMPH,WindSpeedGustMPH,Humidity,HourlyPrecipIn,Conditions,Clouds,dailyrainin,SoftwareType,DateUTC
2013-04-03 00:02:00,25.9,18.0,30.30,WSW,243,0.0,0.0,73,0.00,,,0.00,weatherlink.com 1.10,2013-04-03 04:02:00,
2013-04-03 00:17:00,25.8,19.0,30.30,WSW,243,0.0,0.0,74,0.00,,,0.00,weatherlink.com 1.10,2013-04-03 04:17:00,
2013-04-03 00:32:00,25.3,18.0,30.30,WSW,243,0.0,0.0,75,0.00,,,0.00,weatherlink.com 1.10,2013-04-03 04:32:00,
2013-04-03 00:47:00,25.7,18.0,30.30,SW,229,0.0,0.0,74,0.00,,,0.00,weatherlink.com 1.10,2013-04-03 04:47:00,
2013-04-03 01:02:00,25.8,19.0,30.30,WSW,242,0.0,0.0,75,0.00,,,0.00,weatherlink.com 1.10,2013-04-03 05:02:00,
2013-04-03 01:17:00,26.3,19.0,30.30,SW,233,0.0,0.0,74,0.00,,,0.00,weatherlink.com 1.10,2013-04-03 05:17:00,
2013-04-03 01:32:00,26.0,19.0,30.30,SW,233,0.0,0.0,75,0.00,,,0.00,weatherlink.com 1.10,2013-04-03 05:32:00,
2013-04-03 01:47:00,26.3,19.0,30.30,WSW,246,0.0,0.0,75,0.00,,,0.00,weatherlink.com 1.10,2013-04-03 05:47:00,
2013-04-03 02:02:00,26.2,20.0,30.31,WSW,240,0.0,2.0,77,0.00,,,0.00,weatherlink.com 1.10,2013-04-03 06:02:00,
2013-04-03 02:17:00,26.4,20.0,30.31,SSW,204,0.0,2.0,78,0.00,,,0.00,weatherlink.com 1.10,2013-04-03 06:17:00,
2013-04-03 02:32:00,26.5,21.0,30.31,WSW,245,0.0,1.0,78,0.00,,,0.00,weatherlink.com 1.10,2013-04-03 06:32:00,
2013-04-03 02:47:00,26.2,21.0,30.31,WSW,237,0.0,0.0,79,0.00,,,0.00,weatherlink.com 1.10,2013-04-03 06:47:00,
2013-04-03 03:02:00,25.8,20.0,30.31,SW,236,0.0,0.0,80,0.00,,,0.00,weatherlink.com 1.10,2013-04-03 07:02:00,
2013-04-03 03:17:00,25.7,21.0,30.31,WSW,240,0.0,0.0,81,0.00,,,0.00,weatherlink.com 1.10,2013-04-03 07:17:00,
2013-04-03 03:32:00,26.1,21.0,30.30,West,260,0.0,0.0,82,0.00,,,0.00,weatherlink.com 1.10,2013-04-03 07:32:00,
2013-04-03 03:47:00,25.1,20.0,30.31,WSW,255,0.0,0.0,81,0.00,,,0.00,weatherlink.com 1.10,2013-04-03 07:47:00,
2013-04-03 04:02:00,24.5,20.0,30.31,WSW,255,0.0,0.0,83,0.00,,,0.00,weatherlink.com 1.10,2013-04-03 08:02:00,
2013-04-03 04:17:00,25.4,21.0,30.31,West,278,0.0,0.0,83,0.00,,,0.00,weatherlink.com 1.10,2013-04-03 08:17:00,
2013-04-03 04:32:00,26.4,22.0,30.32,WNW,290,0.0,1.0,82,0.00,,,0.00,weatherlink.com 1.10,2013-04-03 08:32:00,
2013-04-03 04:48:00,26.8,22.0,30.33,WNW,295,1.0,3.0,81,0.00,,,0.00,weatherlink.com 1.10,2013-04-03 08:48:00,
2013-04-03 05:03:00,26.6,22.0,30.34,WNW,293,0.0,2.0,81,0.00,,,0.00,weatherlink.com 1.10,2013-04-03 09:03:00,
2013-04-03 05:18:00,27.1,21.0,30.35,NW,323,4.0,4.0,79,0.00,,,0.00,weatherlink.com 1.10,2013-04-03 09:18:00,
2013-04-03 05:33:00,26.9,21.0,30.35,NNW,334,2.0,4.0,77,0.00,,,0.00,weatherlink.com 1.10,2013-04-03 09:33:00,
2013-04-03 05:48:00,26.3,20.0,30.36,North,11,0.0,4.0,76,0.00,,,0.00,weatherlink.com 1.10,2013-04-03 09:48:00,
2013-04-03 06:03:00,25.7,19.0,30.37,NE,44,0.0,1.0,77,0.00,,,0.00,weatherlink.com 1.10,2013-04-03 10:03:00,
2013-04-03 06:18:00,25.3,19.0,30.38,NNW,333,0.0,1.0,77,0.00,,,0.00,weatherlink.com 1.10,2013-04-03 10:18:00,
2013-04-03 06:33:00,24.5,18.0,30.38,NNW,333,0.0,0.0,77,0.00,,,0.00,weatherlink.com 1.10,2013-04-03 10:33:00,
2013-04-03 06:48:00,23.9,18.0,30.38,NNE,27,0.0,0.0,78,0.00,,,0.00,weatherlink.com 1.10,2013-04-03 10:48:00,
2013-04-03 07:03:00,23.5,18.0,30.39,NNE,24,0.0,0.0,79,0.00,,,0.00,weatherlink.com 1.10,2013-04-03 11:03:00,
2013-04-03 07:18:00,23.0,18.0,30.39,NNE,25,0.0,0.0,80,0.00,,,0.00,weatherlink.com 1.10,2013-04-03 11:18:00,
2013-04-03 07:33:00,21.9,17.0,30.40,NNE,25,0.0,0.0,81,0.00,,,0.00,weatherlink.com 1.10,2013-04-03 11:33:00,
2013-04-03 07:48:00,21.7,17.0,30.41,NNE,24,0.0,0.0,82,0.00,,,0.00,weatherlink.com 1.10,2013-04-03 11:48:00,
2013-04-03 08:03:00,22.0,18.0,30.41,NNE,25,0.0,0.0,83,0.00,,,0.00,weatherlink.com 1.10,2013-04-03 12:03:00,
2013-04-03 08:18:00,22.9,19.0,30.42,NNE,25,0.0,0.0,83,0.00,,,0.00,weatherlink.com 1.10,2013-04-03 12:18:00,
2013-04-03 08:33:00,25.7,21.0,30.43,West,276,0.0,0.0,82,0.00,,,0.00,weatherlink.com 1.10,2013-04-03 12:33:00,
2013-04-03 08:48:00,28.1,21.0,30.43,West,276,0.0,0.0,74,0.00,,,0.00,weatherlink.com 1.10,2013-04-03 12:48:00,
2013-04-03 09:03:00,29.0,20.0,30.43,WNW,301,0.0,1.0,68,0.00,,,0.00,weatherlink.com 1.10,2013-04-03 13:03:00,
2013-04-03 09:18:00,29.6,19.0,30.44,West,274,1.0,2.0,65,0.00,,,0.00,weatherlink.com 1.10,2013-04-03 13:18:00,
2013-04-03 09:33:00,30.5,18.0,30.44,WSW,253,3.0,4.0,60,0.00,,,0.00,weatherlink.com 1.10,2013-04-03 13:33:00,
2013-04-03 09:48:00,31.7,18.0,30.45,NW,308,2.0,5.0,58,0.00,,,0.00,weatherlink.com 1.10,2013-04-03 13:48:00,
2013-04-03 10:04:00,32.7,17.0,30.45,NNW,333,4.0,7.0,52,0.00,,,0.00,weatherlink.com 1.10,2013-04-03 14:04:00,
2013-04-03 10:20:00,33.1,16.0,30.46,North,360,2.0,9.0,50,0.00,,,0.00,weatherlink.com 1.10,2013-04-03 14:20:00,
2013-04-03 10:34:00,33.8,17.0,30.46,NNW,343,3.0,9.0,51,0.00,,,0.00,weatherlink.com 1.10,2013-04-03 14:34:00,
2013-04-03 10:49:00,34.4,16.0,30.46,NNW,333,4.0,8.0,48,0.00,,,0.00,weatherlink.com 1.10,2013-04-03 14:49:00,
2013-04-03 11:04:00,34.4,15.0,30.47,North,357,3.0,8.0,46,0.00,,,0.00,weatherlink.com 1.10,2013-04-03 15:04:00,
2013-04-03 11:19:00,34.8,16.0,30.47,NNW,347,6.0,11.0,47,0.00,,,0.00,weatherlink.com 1.10,2013-04-03 15:19:00,
2013-04-03 11:34:00,35.8,15.0,30.48,NW,307,4.0,11.0,43,0.00,,,0.00,weatherlink.com 1.10,2013-04-03 15:34:00,
2013-04-03 11:49:00,36.1,13.0,30.48,North,350,4.0,9.0,38,0.00,,,0.00,weatherlink.com 1.10,2013-04-03 15:49:00,
2013-04-03 12:04:00,36.4,13.0,30.48,NW,317,3.0,7.0,39,0.00,,,0.00,weatherlink.com 1.10,2013-04-03 16:04:00,
2013-04-03 12:19:00,36.8,15.0,30.48,West,271,5.0,9.0,41,0.00,,,0.00,weatherlink.com 1.10,2013-04-03 16:19:00,
2013-04-03 12:34:00,37.5,15.0,30.48,WNW,302,4.0,9.0,40,0.00,,,0.00,weatherlink.com 1.10,2013-04-03 16:34:00,
2013-04-03 12:49:00,37.7,14.0,30.48,NW,307,3.0,11.0,38,0.00,,,0.00,weatherlink.com 1.10,2013-04-03 16:49:00,
2013-04-03 13:04:00,38.0,12.0,30.46,NW,317,1.0,9.0,35,0.00,,,0.00,weatherlink.com 1.10,2013-04-03 17:04:00,
2013-04-03 13:19:00,38.4,14.0,30.46,WNW,301,3.0,10.0,37,0.00,,,0.00,weatherlink.com 1.10,2013-04-03 17:19:00,
2013-04-03 13:34:00,38.7,14.0,30.45,NNW,332,2.0,10.0,37,0.00,,,0.00,weatherlink.com 1.10,2013-04-03 17:34:00,
2013-04-03 14:04:00,39.8,16.0,30.43,NNE,18,5.0,8.0,38,0.00,,,0.00,weatherlink.com 1.10,2013-04-03 18:04:00,
2013-04-03 14:19:00,41.8,15.0,30.43,NNW,335,2.0,7.0,34,0.00,,,0.00,weatherlink.com 1.10,2013-04-03 18:19:00,
2013-04-03 14:34:00,41.3,15.0,30.43,NW,317,3.0,9.0,34,0.00,,,0.00,weatherlink.com 1.10,2013-04-03 18:34:00,
2013-04-03 14:49:00,41.6,15.0,30.43,North,1,3.0,5.0,34,0.00,,,0.00,weatherlink.com 1.10,2013-04-03 18:49:00,
2013-04-03 15:04:00,41.7,16.0,30.42,NNW,342,3.0,7.0,36,0.00,,,0.00,weatherlink.com 1.10,2013-04-03 19:04:00,
2013-04-03 15:19:00,43.0,15.0,30.41,WNW,293,3.0,5.0,32,0.00,,,0.00,weatherlink.com 1.10,2013-04-03 19:19:00,
2013-04-03 15:35:00,42.3,14.0,30.41,NW,314,1.0,7.0,32,0.00,,,0.00,weatherlink.com 1.10,2013-04-03 19:35:00,
2013-04-03 16:05:00,44.4,15.0,30.42,ENE,65,3.0,5.0,31,0.00,,,0.00,weatherlink.com 1.10,2013-04-03 20:05:00,
2013-04-03 16:20:00,43.3,13.0,30.41,SE,142,0.0,7.0,29,0.00,,,0.00,weatherlink.com 1.10,2013-04-03 20:20:00,
2013-04-03 16:35:00,44.2,14.0,30.40,South,174,4.0,5.0,29,0.00,,,0.00,weatherlink.com 1.10,2013-04-03 20:35:00,
2013-04-03 16:50:00,45.0,14.0,30.40,ESE,111,1.0,5.0,29,0.00,,,0.00,weatherlink.com 1.10,2013-04-03 20:50:00,
2013-04-03 17:05:00,45.4,14.0,30.40,ESE,104,2.0,4.0,28,0.00,,,0.00,weatherlink.com 1.10,2013-04-03 21:05:00,
2013-04-03 17:20:00,45.6,15.0,30.40,West,274,5.0,5.0,29,0.00,,,0.00,weatherlink.com 1.10,2013-04-03 21:20:00,
2013-04-03 17:35:00,44.9,16.0,30.40,West,264,2.0,6.0,31,0.00,,,0.00,weatherlink.com 1.10,2013-04-03 21:35:00,
2013-04-03 17:50:00,43.7,15.0,30.39,West,275,4.0,7.0,32,0.00,,,0.00,weatherlink.com 1.10,2013-04-03 21:50:00,
2013-04-03 18:05:00,41.7,21.0,30.41,West,281,4.0,12.0,43,0.00,,,0.00,weatherlink.com 1.10,2013-04-03 22:05:00,
2013-04-03 18:20:00,40.6,20.0,30.40,South,172,1.0,11.0,43,0.00,,,0.00,weatherlink.com 1.10,2013-04-03 22:20:00,
2013-04-03 18:35:00,40.2,20.0,30.40,NW,305,6.0,10.0,44,0.00,,,0.00,weatherlink.com 1.10,2013-04-03 22:35:00,
2013-04-03 18:50:00,40.0,20.0,30.40,WSW,248,4.0,9.0,44,0.00,,,0.00,weatherlink.com 1.10,2013-04-03 22:50:00,
2013-04-03 19:05:00,39.3,19.0,30.38,WNW,290,3.0,7.0,45,0.00,,,0.00,weatherlink.com 1.10,2013-04-03 23:05:00,
2013-04-03 19:20:00,39.0,20.0,30.39,WNW,293,2.0,7.0,46,0.00,,,0.00,weatherlink.com 1.10,2013-04-03 23:20:00,
2013-04-03 19:35:00,38.5,20.0,30.39,NW,322,4.0,7.0,47,0.00,,,0.00,weatherlink.com 1.10,2013-04-03 23:35:00,
2013-04-03 19:50:00,37.2,19.0,30.39,NW,319,2.0,7.0,49,0.00,,,0.00,weatherlink.com 1.10,2013-04-03 23:50:00,
2013-04-03 20:05:00,36.3,20.0,30.39,West,274,2.0,4.0,51,0.00,,,0.00,weatherlink.com 1.10,2013-04-04 00:05:00,
2013-04-03 20:20:00,35.5,19.0,30.38,West,267,0.0,4.0,52,0.00,,,0.00,weatherlink.com 1.10,2013-04-04 00:20:00,
2013-04-03 20:35:00,34.9,19.0,30.38,West,259,1.0,1.0,53,0.00,,,0.00,weatherlink.com 1.10,2013-04-04 00:35:00,
2013-04-03 20:50:00,34.5,19.0,30.38,West,279,2.0,5.0,54,0.00,,,0.00,weatherlink.com 1.10,2013-04-04 00:50:00,
2013-04-03 21:05:00,33.8,19.0,30.38,WSW,248,2.0,4.0,56,0.00,,,0.00,weatherlink.com 1.10,2013-04-04 01:05:00,
2013-04-03 21:20:00,33.2,20.0,30.38,West,269,2.0,3.0,58,0.00,,,0.00,weatherlink.com 1.10,2013-04-04 01:20:00,
2013-04-03 21:35:00,32.7,19.0,30.39,WNW,297,1.0,5.0,58,0.00,,,0.00,weatherlink.com 1.10,2013-04-04 01:35:00,
2013-04-03 21:50:00,32.3,19.0,30.39,West,267,2.0,3.0,59,0.00,,,0.00,weatherlink.com 1.10,2013-04-04 01:50:00,
2013-04-03 22:05:00,31.9,19.0,30.39,WSW,243,0.0,2.0,60,0.00,,,0.00,weatherlink.com 1.10,2013-04-04 02:05:00,
2013-04-03 22:20:00,31.2,19.0,30.39,WSW,248,2.0,2.0,62,0.00,,,0.00,weatherlink.com 1.10,2013-04-04 02:20:00,
2013-04-03 22:35:00,31.0,20.0,30.39,West,259,2.0,3.0,64,0.00,,,0.00,weatherlink.com 1.10,2013-04-04 02:35:00,
2013-04-03 22:50:00,30.5,20.0,30.39,WSW,239,0.0,1.0,65,0.00,,,0.00,weatherlink.com 1.10,2013-04-04 02:50:00,
2013-04-03 23:05:00,29.8,20.0,30.39,WSW,239,0.0,1.0,68,0.00,,,0.00,weatherlink.com 1.10,2013-04-04 03:05:00,
2013-04-03 23:20:00,29.4,20.0,30.38,WSW,245,0.0,1.0,68,0.00,,,0.00,weatherlink.com 1.10,2013-04-04 03:20:00,
2013-04-03 23:35:00,28.8,20.0,30.38,WSW,245,0.0,0.0,71,0.00,,,0.00,weatherlink.com 1.10,2013-04-04 03:35:00,
2013-04-03 23:50:00,28.5,20.0,30.37,WSW,245,0.0,0.0,71,0.00,,,0.00,weatherlink.com 1.10,2013-04-04 03:50:00,